createdAt,value
2018-08-19T00:00:46.869Z,9.27
2018-08-19T00:04:40.936Z,8.50
2018-08-19T00:08:35.525Z,8.50
2018-08-19T00:12:40.072Z,11.17
2018-08-19T00:16:34.606Z,9.03
2018-08-19T00:20:28.559Z,9.57
2018-08-19T00:24:22.538Z,8.17
2018-08-19T00:28:19.819Z,9.63
2018-08-19T00:32:13.760Z,9.07
2018-08-19T00:36:21.883Z,10.30
2018-08-19T00:40:15.834Z,7.47
2018-08-19T00:44:09.951Z,8.10
2018-08-19T00:48:04.000Z,9.83
2018-08-19T00:51:59.964Z,6.30
2018-08-19T00:55:53.931Z,8.90
2018-08-19T00:59:48.050Z,10.87
2018-08-19T01:03:53.481Z,7.13
2018-08-19T01:07:47.459Z,11.03
2018-08-19T01:11:42.275Z,10.37
2018-08-19T01:15:36.219Z,12.63
2018-08-19T01:19:30.147Z,7.03
2018-08-19T01:23:24.118Z,12.20
2018-08-19T01:27:18.038Z,10.40
2018-08-19T01:31:12.543Z,5.43
2018-08-19T01:35:06.590Z,14.47
2018-08-19T01:39:00.519Z,8.97
2018-08-19T01:42:54.480Z,8.67
2018-08-19T01:46:50.610Z,11.10
2018-08-19T01:50:44.556Z,10.50
2018-08-19T01:54:38.533Z,7.90
2018-08-19T01:58:38.810Z,9.83
2018-08-19T02:02:38.247Z,10.23
2018-08-19T02:06:32.317Z,12.10
2018-08-19T02:10:28.018Z,7.00
2018-08-19T02:14:22.523Z,6.87
2018-08-19T02:18:16.407Z,11.30
2018-08-19T02:22:10.343Z,10.47
2018-08-19T02:26:04.298Z,12.43
2018-08-19T02:29:58.547Z,8.93
2018-08-19T02:33:52.491Z,9.93
2018-08-19T02:37:46.476Z,9.93
2018-08-19T02:41:42.850Z,9.13
2018-08-19T02:45:36.893Z,12.10
2018-08-19T02:49:30.885Z,10.53
2018-08-19T02:53:24.859Z,10.73
2018-08-19T02:57:18.783Z,8.83
2018-08-19T03:01:13.879Z,9.80
2018-08-19T03:05:10.662Z,10.33
2018-08-19T03:09:06.911Z,7.67
2018-08-19T03:13:00.834Z,9.20
2018-08-19T03:16:54.786Z,11.80
2018-08-19T03:20:48.704Z,12.17
2018-08-19T03:24:42.656Z,13.70
2018-08-19T03:28:36.637Z,10.23
2018-08-19T03:32:30.664Z,8.47
2018-08-19T03:36:24.917Z,11.67
2018-08-19T03:40:19.059Z,13.57
2018-08-19T03:44:13.018Z,8.97
2018-08-19T03:48:07.080Z,10.93
2018-08-19T03:52:01.114Z,10.53
2018-08-19T03:55:55.100Z,10.90
2018-08-19T03:59:49.126Z,10.80
2018-08-19T04:03:43.176Z,12.27
2018-08-19T04:07:37.086Z,10.83
2018-08-19T04:11:31.078Z,9.80
2018-08-19T04:15:25.043Z,9.70
2018-08-19T04:19:18.960Z,9.50
2018-08-19T04:23:12.915Z,12.30
2018-08-19T04:27:11.029Z,13.93
2018-08-19T04:31:12.044Z,12.05
2018-08-19T04:35:06.236Z,10.10
2018-08-19T04:39:00.237Z,11.00
2018-08-19T04:42:54.203Z,13.43
2018-08-19T04:46:48.627Z,12.87
2018-08-19T04:50:42.638Z,12.90
2018-08-19T04:54:36.625Z,11.20
2018-08-19T04:58:30.653Z,15.17
2018-08-19T05:02:24.625Z,11.00
2018-08-19T05:06:18.521Z,9.90
2018-08-19T05:10:12.506Z,15.53
2018-08-19T05:14:06.462Z,14.10
2018-08-19T05:18:00.610Z,11.73
2018-08-19T05:21:58.933Z,10.67
2018-08-19T05:25:56.871Z,12.60
2018-08-19T05:29:50.946Z,9.55
2018-08-19T05:33:44.879Z,9.23
2018-08-19T05:37:38.803Z,7.37
2018-08-19T05:41:32.742Z,11.23
2018-08-19T05:45:26.786Z,16.10
2018-08-19T05:49:20.734Z,11.33
2018-08-19T05:53:14.751Z,12.43
2018-08-19T05:57:08.713Z,12.00
2018-08-19T06:01:02.671Z,11.20
2018-08-19T06:04:56.604Z,10.38
2018-08-19T06:08:53.014Z,9.23
2018-08-19T06:12:46.963Z,7.72
2018-08-19T06:16:40.879Z,12.60
2018-08-19T06:20:34.869Z,8.17
2018-08-19T06:24:28.830Z,8.10
2018-08-19T06:28:22.845Z,11.38
2018-08-19T06:32:22.890Z,9.97
2018-08-19T06:36:16.879Z,10.77
2018-08-19T06:40:13.534Z,11.70
2018-08-19T06:44:07.489Z,14.23
2018-08-19T06:48:01.597Z,11.18
2018-08-19T06:51:57.162Z,17.90
2018-08-19T06:55:51.197Z,12.13
2018-08-19T06:59:45.278Z,10.63
2018-08-19T07:03:43.611Z,10.33
2018-08-19T07:07:37.506Z,9.67
2018-08-19T07:11:31.511Z,6.97
2018-08-19T07:15:25.515Z,9.70
2018-08-19T07:19:19.445Z,8.60
2018-08-19T07:23:13.810Z,9.40
2018-08-19T07:27:08.875Z,7.53
2018-08-19T07:31:02.890Z,7.63
2018-08-19T07:34:57.008Z,10.43
2018-08-19T07:38:51.002Z,6.03
2018-08-19T07:42:44.970Z,9.60
2018-08-19T07:46:38.970Z,6.50
2018-08-19T07:50:32.915Z,7.90
2018-08-19T07:54:26.945Z,4.93
2018-08-19T07:58:30.878Z,9.07
2018-08-19T08:02:27.499Z,6.03
2018-08-19T08:06:21.675Z,5.63
2018-08-19T08:10:15.893Z,7.20
2018-08-19T08:14:09.874Z,8.45
2018-08-19T08:18:04.013Z,6.67
2018-08-19T08:22:04.279Z,4.93
2018-08-19T08:25:58.248Z,5.87
2018-08-19T08:29:52.510Z,6.20
2018-08-19T08:33:46.702Z,5.93
2018-08-19T08:37:42.167Z,5.17
2018-08-19T08:41:36.255Z,5.20
2018-08-19T08:45:34.499Z,6.40
2018-08-19T08:49:32.769Z,4.63
2018-08-19T08:53:31.030Z,5.00
2018-08-19T08:57:25.828Z,6.77
2018-08-19T09:01:19.859Z,4.83
2018-08-19T09:05:13.799Z,5.27
2018-08-19T09:09:08.304Z,4.83
2018-08-19T09:13:02.903Z,5.40
2018-08-19T09:16:56.954Z,5.33
2018-08-19T09:20:50.932Z,7.07
2018-08-19T09:24:44.882Z,8.17
2018-08-19T09:28:38.863Z,7.07
2018-08-19T09:32:32.875Z,9.10
2018-08-19T09:36:27.071Z,7.27
2018-08-19T09:40:21.061Z,6.83
2018-08-19T09:44:15.016Z,6.40
2018-08-19T09:48:09.527Z,8.57
2018-08-19T09:52:03.851Z,7.97
2018-08-19T09:56:03.196Z,7.03
2018-08-19T09:59:57.106Z,6.20
2018-08-19T10:03:51.112Z,7.10
2018-08-19T10:07:45.114Z,10.20
2018-08-19T10:11:39.691Z,5.60
2018-08-19T10:15:34.091Z,9.80
2018-08-19T10:19:28.076Z,6.13
2018-08-19T10:23:24.616Z,7.93
2018-08-19T10:27:18.556Z,6.90
2018-08-19T10:31:19.284Z,8.43
2018-08-19T10:35:17.787Z,7.37
2018-08-19T10:39:14.507Z,9.87
2018-08-19T10:43:09.656Z,8.17
2018-08-19T10:47:03.626Z,7.13
2018-08-19T10:50:58.794Z,9.13
2018-08-19T10:54:52.832Z,7.47
2018-08-19T10:58:58.315Z,7.70
2018-08-19T11:02:52.358Z,6.77
2018-08-19T11:06:46.473Z,7.27
2018-08-19T11:10:40.483Z,9.83
2018-08-19T11:14:34.437Z,6.43
2018-08-19T11:18:38.768Z,8.10
2018-08-19T11:22:32.756Z,7.53
2018-08-19T11:26:26.839Z,8.43
2018-08-19T11:30:23.927Z,6.08
2018-08-19T11:34:17.902Z,5.87
2018-08-19T11:38:11.956Z,6.77
2018-08-19T11:42:06.057Z,6.30
2018-08-19T11:46:00.083Z,6.93
2018-08-19T11:49:54.047Z,8.37
2018-08-19T11:53:48.136Z,6.57
2018-08-19T11:57:42.099Z,6.87
2018-08-19T12:01:36.456Z,6.30
2018-08-19T12:05:33.121Z,6.43
2018-08-19T12:09:27.245Z,7.23
2018-08-19T12:13:21.286Z,8.63
2018-08-19T12:17:15.221Z,9.30
2018-08-19T12:21:09.672Z,5.73
2018-08-19T12:25:03.795Z,5.93
2018-08-19T12:28:57.820Z,10.50
2018-08-19T12:32:56.574Z,5.70
2018-08-19T12:36:50.634Z,6.63
2018-08-19T12:40:47.624Z,8.00
2018-08-19T12:44:41.817Z,6.57
2018-08-19T12:48:35.886Z,6.20
2018-08-19T12:52:31.936Z,6.23
2018-08-19T12:56:25.898Z,8.63
2018-08-19T13:00:22.202Z,6.70
2018-08-19T13:04:16.191Z,6.70
2018-08-19T13:08:10.227Z,6.77
2018-08-19T13:12:06.500Z,7.80
2018-08-19T13:16:00.708Z,8.20
2018-08-19T13:19:58.937Z,9.07
2018-08-19T13:23:52.960Z,9.13
2018-08-19T13:27:47.011Z,7.93
2018-08-19T13:31:41.055Z,7.37
2018-08-19T13:35:34.982Z,7.83
2018-08-19T13:39:29.152Z,8.23
2018-08-19T13:43:23.134Z,8.63
2018-08-19T13:47:17.111Z,7.13
2018-08-19T13:51:10.967Z,9.23
2018-08-19T13:55:07.899Z,7.10
2018-08-19T13:59:01.944Z,6.97
2018-08-19T14:02:55.948Z,6.63
2018-08-19T14:06:49.987Z,8.37
2018-08-19T14:10:44.034Z,9.03
2018-08-19T14:14:37.955Z,7.50
2018-08-19T14:18:31.894Z,8.18
2018-08-19T14:22:25.983Z,9.80
2018-08-19T14:26:19.924Z,7.57
2018-08-19T14:30:14.059Z,8.03
2018-08-19T14:34:07.919Z,7.70
2018-08-19T14:38:01.827Z,7.30
2018-08-19T14:41:55.999Z,7.80
2018-08-19T14:45:49.970Z,8.03
2018-08-19T14:49:43.942Z,9.03
2018-08-19T14:53:37.923Z,7.03
2018-08-19T14:57:31.915Z,7.80
2018-08-19T15:01:25.872Z,8.87
2018-08-19T15:05:21.515Z,7.53
2018-08-19T15:09:24.175Z,9.88
2018-08-19T15:13:19.083Z,7.87
2018-08-19T15:17:13.048Z,9.10
2018-08-19T15:21:07.012Z,8.77
2018-08-19T15:25:00.995Z,9.20
2018-08-19T15:28:55.379Z,11.77
2018-08-19T15:32:49.827Z,9.90
2018-08-19T15:36:43.484Z,8.33
2018-08-19T15:40:40.728Z,10.95
2018-08-19T15:44:34.748Z,12.43
2018-08-19T15:48:28.706Z,8.70
2018-08-19T15:52:22.711Z,12.40
2018-08-19T15:56:16.764Z,13.13
2018-08-19T16:00:10.741Z,8.47
2018-08-19T16:04:09.823Z,12.77
2018-08-19T16:08:04.210Z,10.10
2018-08-19T16:11:58.314Z,16.20
2018-08-19T16:15:52.259Z,9.83
2018-08-19T16:19:46.232Z,11.83
2018-08-19T16:23:40.250Z,13.10
2018-08-19T16:27:34.283Z,9.88
2018-08-19T16:31:28.493Z,8.97
2018-08-19T16:35:23.634Z,7.60
2018-08-19T16:39:18.406Z,8.23
2018-08-19T16:43:12.327Z,10.43
2018-08-19T16:47:06.565Z,12.07
2018-08-19T16:51:07.573Z,13.13
2018-08-19T16:55:01.472Z,10.23
2018-08-19T16:58:55.650Z,9.30
2018-08-19T17:02:49.580Z,11.50
2018-08-19T17:06:43.439Z,8.80
2018-08-19T17:10:37.399Z,10.80
2018-08-19T17:14:31.401Z,14.13
2018-08-19T17:18:25.572Z,11.60
2018-08-19T17:22:19.546Z,13.33
2018-08-19T17:26:18.905Z,10.43
2018-08-19T17:30:17.050Z,14.73
2018-08-19T17:34:19.873Z,11.10
2018-08-19T17:38:14.664Z,11.25
2018-08-19T17:42:08.809Z,11.80
2018-08-19T17:46:07.045Z,14.17
2018-08-19T17:50:01.129Z,13.20
2018-08-19T17:53:55.061Z,12.20
2018-08-19T17:57:49.038Z,12.53
2018-08-19T18:01:44.137Z,11.95
2018-08-19T18:05:38.230Z,13.63
2018-08-19T18:09:32.281Z,12.37
2018-08-19T18:13:26.585Z,13.60
2018-08-19T18:17:20.564Z,12.67
2018-08-19T18:21:14.609Z,11.07
2018-08-19T18:25:08.661Z,11.30
2018-08-19T18:29:02.589Z,11.50
2018-08-19T18:32:56.580Z,10.87
2018-08-19T18:36:50.488Z,10.37
2018-08-19T18:40:44.433Z,10.10
2018-08-19T18:44:38.377Z,12.80
2018-08-19T18:48:32.354Z,9.17
2018-08-19T18:52:26.400Z,11.23
2018-08-19T18:56:20.327Z,10.27
2018-08-19T19:00:14.266Z,12.43
2018-08-19T19:04:08.530Z,10.67
2018-08-19T19:08:06.437Z,12.70
2018-08-19T19:12:00.388Z,14.60
2018-08-19T19:15:54.335Z,9.93
2018-08-19T19:19:50.396Z,8.70
2018-08-19T19:23:44.694Z,12.77
2018-08-19T19:27:38.676Z,8.45
2018-08-19T19:31:32.604Z,11.30
2018-08-19T19:35:27.578Z,8.70
2018-08-19T19:39:21.539Z,10.00
2018-08-19T19:43:15.470Z,9.70
2018-08-19T19:47:10.014Z,9.67
2018-08-19T19:51:03.963Z,9.50
2018-08-19T19:54:58.108Z,14.07
2018-08-19T19:58:52.088Z,9.23
2018-08-19T20:02:46.055Z,9.23
2018-08-19T20:06:40.129Z,9.60
2018-08-19T20:10:34.644Z,11.57
2018-08-19T20:14:28.692Z,10.30
2018-08-19T20:18:22.689Z,9.63
2018-08-19T20:22:18.352Z,10.93
2018-08-19T20:26:12.357Z,10.77
2018-08-19T20:30:06.340Z,9.87
2018-08-19T20:34:00.364Z,12.80
2018-08-19T20:37:54.651Z,11.50
2018-08-19T20:41:48.638Z,10.40
2018-08-19T20:45:42.646Z,12.13
2018-08-19T20:49:37.038Z,14.40
2018-08-19T20:53:31.008Z,11.40
2018-08-19T20:57:25.007Z,11.87
2018-08-19T21:01:24.378Z,11.33
2018-08-19T21:05:18.336Z,14.23
2018-08-19T21:09:12.334Z,15.50
2018-08-19T21:13:06.682Z,11.10
2018-08-19T21:17:02.696Z,12.67
2018-08-19T21:20:56.718Z,13.47
2018-08-19T21:24:50.674Z,16.60
2018-08-19T21:28:48.842Z,14.53
2018-08-19T21:32:42.894Z,15.43
2018-08-19T21:36:36.929Z,11.45
2018-08-19T21:40:36.808Z,14.93
2018-08-19T21:44:30.793Z,13.27
2018-08-19T21:48:24.890Z,12.20
2018-08-19T21:52:18.898Z,13.87
2018-08-19T21:56:12.884Z,12.30
2018-08-19T22:00:07.186Z,13.10
2018-08-19T22:04:01.209Z,11.90
2018-08-19T22:07:55.361Z,13.60
2018-08-19T22:11:49.377Z,13.77
2018-08-19T22:15:44.321Z,13.87
2018-08-19T22:19:38.531Z,12.57
2018-08-19T22:23:43.290Z,12.37
2018-08-19T22:27:37.179Z,11.57
2018-08-19T22:31:31.156Z,11.80
2018-08-19T22:35:25.150Z,12.67
2018-08-19T22:39:19.937Z,10.00
2018-08-19T22:43:13.905Z,10.83
2018-08-19T22:47:07.921Z,11.53
2018-08-19T22:51:01.895Z,11.20
2018-08-19T22:54:57.862Z,10.40
2018-08-19T22:58:51.822Z,11.53
2018-08-19T23:02:45.845Z,10.63
2018-08-19T23:06:39.832Z,11.43
2018-08-19T23:10:33.813Z,9.90
2018-08-19T23:14:39.122Z,12.63
2018-08-19T23:18:33.088Z,11.97
2018-08-19T23:22:27.054Z,10.00
2018-08-19T23:26:21.958Z,9.70
2018-08-19T23:30:15.923Z,10.27
2018-08-19T23:34:09.891Z,10.60
2018-08-19T23:38:03.889Z,10.30
2018-08-19T23:41:57.888Z,11.57
2018-08-19T23:45:51.879Z,10.20
2018-08-19T23:49:46.032Z,10.33
2018-08-19T23:53:40.098Z,12.77
2018-08-19T23:57:34.078Z,15.90
